sensor_id;sensor_type;location;lat;lon;timestamp;temperature;humidity
3792;DHT22;1911;53.768;11.474;2022-12-31T00:00:32;8.10;99.90
3792;DHT22;1911;53.768;11.474;2022-12-31T00:02:58;8.00;99.90
3792;DHT22;1911;53.768;11.474;2022-12-31T00:05:24;7.90;99.90
3792;DHT22;1911;53.768;11.474;2022-12-31T00:07:50;8.00;99.90
3792;DHT22;1911;53.768;11.474;2022-12-31T00:10:15;8.10;99.90
3792;DHT22;1911;53.768;11.474;2022-12-31T00:12:41;8.10;99.90
3792;DHT22;1911;53.768;11.474;2022-12-31T00:15:07;8.00;99.90
3792;DHT22;1911;53.768;11.474;2022-12-31T00:17:33;8.00;99.90
3792;DHT22;1911;53.768;11.474;2022-12-31T00:19:58;8.00;99.90
3792;DHT22;1911;53.768;11.474;2022-12-31T00:22:24;8.00;99.90
3792;DHT22;1911;53.768;11.474;2022-12-31T00:24:50;7.90;99.90
3792;DHT22;1911;53.768;11.474;2022-12-31T00:27:15;8.00;99.90
3792;DHT22;1911;53.768;11.474;2022-12-31T00:29:41;8.10;99.90
3792;DHT22;1911;53.768;11.474;2022-12-31T00:32:06;8.10;99.90
3792;DHT22;1911;53.768;11.474;2022-12-31T00:34:32;8.10;99.90
3792;DHT22;1911;53.768;11.474;2022-12-31T00:36:57;8.20;99.90
3792;DHT22;1911;53.768;11.474;2022-12-31T00:39:23;8.20;99.90
3792;DHT22;1911;53.768;11.474;2022-12-31T00:41:49;8.20;99.90
3792;DHT22;1911;53.768;11.474;2022-12-31T00:44:14;8.20;99.90
3792;DHT22;1911;53.768;11.474;2022-12-31T00:46:40;8.20;99.90
3792;DHT22;1911;53.768;11.474;2022-12-31T00:49:06;8.20;99.90
3792;DHT22;1911;53.768;11.474;2022-12-31T00:51:31;8.10;99.90
3792;DHT22;1911;53.768;11.474;2022-12-31T00:53:57;8.10;99.90
3792;DHT22;1911;53.768;11.474;2022-12-31T00:56:25;8.10;99.90
3792;DHT22;1911;53.768;11.474;2022-12-31T00:58:51;8.10;99.90
3792;DHT22;1911;53.768;11.474;2022-12-31T01:01:34;8.10;99.90
3792;DHT22;1911;53.768;11.474;2022-12-31T01:04:09;8.10;99.90
3792;DHT22;1911;53.768;11.474;2022-12-31T01:06:35;8.00;99.90
3792;DHT22;1911;53.768;11.474;2022-12-31T01:09:01;8.00;99.90
3792;DHT22;1911;53.768;11.474;2022-12-31T01:11:26;8.00;99.90
3792;DHT22;1911;53.768;11.474;2022-12-31T01:14:08;8.10;99.90
3792;DHT22;1911;53.768;11.474;2022-12-31T01:16:45;8.00;99.90
3792;DHT22;1911;53.768;11.474;2022-12-31T01:19:14;7.90;99.90
3792;DHT22;1911;53.768;11.474;2022-12-31T01:21:40;7.90;99.90
3792;DHT22;1911;53.768;11.474;2022-12-31T01:24:07;7.80;99.90
3792;DHT22;1911;53.768;11.474;2022-12-31T01:26:33;7.80;99.90
3792;DHT22;1911;53.768;11.474;2022-12-31T01:28:59;8.20;99.90
3792;DHT22;1911;53.768;11.474;2022-12-31T01:31:24;8.30;99.90
3792;DHT22;1911;53.768;11.474;2022-12-31T01:33:51;8.30;99.90
3792;DHT22;1911;53.768;11.474;2022-12-31T01:36:22;8.40;99.90
3792;DHT22;1911;53.768;11.474;2022-12-31T01:38:48;8.40;99.90
3792;DHT22;1911;53.768;11.474;2022-12-31T01:41:16;8.40;99.90
3792;DHT22;1911;53.768;11.474;2022-12-31T01:46:09;8.30;99.90
3792;DHT22;1911;53.768;11.474;2022-12-31T01:48:37;8.20;99.90
3792;DHT22;1911;53.768;11.474;2022-12-31T01:51:04;8.00;99.90
3792;DHT22;1911;53.768;11.474;2022-12-31T01:53:31;8.00;99.90
3792;DHT22;1911;53.768;11.474;2022-12-31T01:55:58;8.00;99.90
3792;DHT22;1911;53.768;11.474;2022-12-31T01:58:39;8.00;99.90
3792;DHT22;1911;53.768;11.474;2022-12-31T02:01:08;8.00;99.90
3792;DHT22;1911;53.768;11.474;2022-12-31T02:03:34;8.20;99.90
3792;DHT22;1911;53.768;11.474;2022-12-31T02:08:30;8.50;99.90
3792;DHT22;1911;53.768;11.474;2022-12-31T02:10:55;8.50;99.90
3792;DHT22;1911;53.768;11.474;2022-12-31T02:13:21;8.60;99.90
3792;DHT22;1911;53.768;11.474;2022-12-31T02:16:06;8.60;99.90
3792;DHT22;1911;53.768;11.474;2022-12-31T02:18:42;8.60;99.90
3792;DHT22;1911;53.768;11.474;2022-12-31T02:21:43;8.60;99.90
3792;DHT22;1911;53.768;11.474;2022-12-31T02:24:21;8.70;99.90
3792;DHT22;1911;53.768;11.474;2022-12-31T02:26:57;8.70;99.90
3792;DHT22;1911;53.768;11.474;2022-12-31T02:32:41;8.60;99.90
3792;DHT22;1911;53.768;11.474;2022-12-31T02:35:12;8.60;99.90
3792;DHT22;1911;53.768;11.474;2022-12-31T02:37:41;8.50;99.90
3792;DHT22;1911;53.768;11.474;2022-12-31T02:40:11;8.30;99.90
3792;DHT22;1911;53.768;11.474;2022-12-31T02:42:38;8.30;99.90
3792;DHT22;1911;53.768;11.474;2022-12-31T02:45:04;8.20;99.90
3792;DHT22;1911;53.768;11.474;2022-12-31T02:48:09;8.10;99.90
3792;DHT22;1911;53.768;11.474;2022-12-31T02:51:04;8.10;99.90
3792;DHT22;1911;53.768;11.474;2022-12-31T02:56:33;8.50;99.90
3792;DHT22;1911;53.768;11.474;2022-12-31T02:59:03;8.60;99.90
3792;DHT22;1911;53.768;11.474;2022-12-31T03:01:54;8.50;99.90
3792;DHT22;1911;53.768;11.474;2022-12-31T03:04:53;8.40;99.90
3792;DHT22;1911;53.768;11.474;2022-12-31T03:07:24;8.50;99.90
3792;DHT22;1911;53.768;11.474;2022-12-31T03:09:51;8.70;99.90
3792;DHT22;1911;53.768;11.474;2022-12-31T03:12:18;8.70;99.90
3792;DHT22;1911;53.768;11.474;2022-12-31T03:15:04;8.70;99.90
3792;DHT22;1911;53.768;11.474;2022-12-31T03:17:31;8.60;99.90
3792;DHT22;1911;53.768;11.474;2022-12-31T03:19:57;8.30;99.90
3792;DHT22;1911;53.768;11.474;2022-12-31T03:22:42;8.20;99.90
3792;DHT22;1911;53.768;11.474;2022-12-31T03:25:11;8.30;99.90
3792;DHT22;1911;53.768;11.474;2022-12-31T03:27:55;8.40;99.90
3792;DHT22;1911;53.768;11.474;2022-12-31T03:30:22;8.60;99.90
3792;DHT22;1911;53.768;11.474;2022-12-31T03:32:48;8.70;99.90
3792;DHT22;1911;53.768;11.474;2022-12-31T03:35:15;8.80;99.90
3792;DHT22;1911;53.768;11.474;2022-12-31T03:37:42;8.80;99.90
3792;DHT22;1911;53.768;11.474;2022-12-31T03:40:10;8.70;99.90
3792;DHT22;1911;53.768;11.474;2022-12-31T03:42:37;8.70;99.90
3792;DHT22;1911;53.768;11.474;2022-12-31T03:45:03;8.70;99.90
3792;DHT22;1911;53.768;11.474;2022-12-31T03:47:28;8.80;99.90
3792;DHT22;1911;53.768;11.474;2022-12-31T03:49:54;8.80;99.90
3792;DHT22;1911;53.768;11.474;2022-12-31T03:52:20;8.80;99.90
3792;DHT22;1911;53.768;11.474;2022-12-31T03:54:46;8.90;99.90
3792;DHT22;1911;53.768;11.474;2022-12-31T03:57:12;8.90;99.90
3792;DHT22;1911;53.768;11.474;2022-12-31T03:59:37;8.90;99.90
3792;DHT22;1911;53.768;11.474;2022-12-31T04:02:03;8.80;99.90
3792;DHT22;1911;53.768;11.474;2022-12-31T04:04:29;8.70;99.90
3792;DHT22;1911;53.768;11.474;2022-12-31T04:06:54;8.70;99.90
3792;DHT22;1911;53.768;11.474;2022-12-31T04:09:20;8.70;99.90
3792;DHT22;1911;53.768;11.474;2022-12-31T04:11:45;8.90;99.90
3792;DHT22;1911;53.768;11.474;2022-12-31T04:14:11;9.00;99.90
3792;DHT22;1911;53.768;11.474;2022-12-31T04:16:37;9.10;99.90
3792;DHT22;1911;53.768;11.474;2022-12-31T04:19:03;9.10;99.90
3792;DHT22;1911;53.768;11.474;2022-12-31T04:21:28;9.10;99.90
3792;DHT22;1911;53.768;11.474;2022-12-31T04:23:54;9.10;99.90
3792;DHT22;1911;53.768;11.474;2022-12-31T04:26:20;9.00;99.90
3792;DHT22;1911;53.768;11.474;2022-12-31T04:28:45;9.00;99.90
3792;DHT22;1911;53.768;11.474;2022-12-31T04:31:11;9.00;99.90
3792;DHT22;1911;53.768;11.474;2022-12-31T04:33:37;9.00;99.90
3792;DHT22;1911;53.768;11.474;2022-12-31T04:36:05;9.00;99.90
3792;DHT22;1911;53.768;11.474;2022-12-31T04:38:31;8.90;99.90
3792;DHT22;1911;53.768;11.474;2022-12-31T04:40:57;8.70;99.90
3792;DHT22;1911;53.768;11.474;2022-12-31T04:43:45;8.40;99.90
3792;DHT22;1911;53.768;11.474;2022-12-31T04:46:12;8.30;99.90
3792;DHT22;1911;53.768;11.474;2022-12-31T04:48:38;8.50;99.90
3792;DHT22;1911;53.768;11.474;2022-12-31T04:51:04;8.50;99.90
3792;DHT22;1911;53.768;11.474;2022-12-31T04:53:30;8.60;99.90
3792;DHT22;1911;53.768;11.474;2022-12-31T04:55:55;8.70;99.90
3792;DHT22;1911;53.768;11.474;2022-12-31T04:58:21;8.70;99.90
3792;DHT22;1911;53.768;11.474;2022-12-31T05:00:47;8.70;99.90
3792;DHT22;1911;53.768;11.474;2022-12-31T05:03:17;8.70;99.90
3792;DHT22;1911;53.768;11.474;2022-12-31T05:05:43;8.70;99.90
3792;DHT22;1911;53.768;11.474;2022-12-31T05:08:09;8.60;99.90
3792;DHT22;1911;53.768;11.474;2022-12-31T05:10:35;8.50;99.90
3792;DHT22;1911;53.768;11.474;2022-12-31T05:13:01;8.40;99.90
3792;DHT22;1911;53.768;11.474;2022-12-31T05:15:27;8.40;99.90
3792;DHT22;1911;53.768;11.474;2022-12-31T05:17:53;8.50;99.90
3792;DHT22;1911;53.768;11.474;2022-12-31T05:20:18;8.50;99.90
3792;DHT22;1911;53.768;11.474;2022-12-31T05:22:44;8.60;99.90
3792;DHT22;1911;53.768;11.474;2022-12-31T05:25:10;8.40;99.90
3792;DHT22;1911;53.768;11.474;2022-12-31T05:27:35;8.40;99.90
3792;DHT22;1911;53.768;11.474;2022-12-31T05:30:03;8.40;99.90
3792;DHT22;1911;53.768;11.474;2022-12-31T05:32:30;8.20;99.90
3792;DHT22;1911;53.768;11.474;2022-12-31T05:34:56;8.20;99.90
3792;DHT22;1911;53.768;11.474;2022-12-31T05:37:22;8.40;99.90
3792;DHT22;1911;53.768;11.474;2022-12-31T05:39:48;8.50;99.90
3792;DHT22;1911;53.768;11.474;2022-12-31T05:42:13;8.50;99.90
3792;DHT22;1911;53.768;11.474;2022-12-31T05:44:39;8.50;99.90
3792;DHT22;1911;53.768;11.474;2022-12-31T05:47:07;8.50;99.90
3792;DHT22;1911;53.768;11.474;2022-12-31T05:49:33;8.30;99.90
3792;DHT22;1911;53.768;11.474;2022-12-31T05:51:58;8.50;99.90
3792;DHT22;1911;53.768;11.474;2022-12-31T05:54:24;8.50;99.90
3792;DHT22;1911;53.768;11.474;2022-12-31T05:56:50;8.60;99.90
3792;DHT22;1911;53.768;11.474;2022-12-31T05:59:15;8.80;99.90
3792;DHT22;1911;53.768;11.474;2022-12-31T06:01:41;8.90;99.90
3792;DHT22;1911;53.768;11.474;2022-12-31T06:04:07;9.00;99.90
3792;DHT22;1911;53.768;11.474;2022-12-31T06:06:32;9.10;99.90
3792;DHT22;1911;53.768;11.474;2022-12-31T06:08:58;9.00;99.90
3792;DHT22;1911;53.768;11.474;2022-12-31T06:11:23;8.90;99.90
3792;DHT22;1911;53.768;11.474;2022-12-31T06:13:49;8.40;99.90
3792;DHT22;1911;53.768;11.474;2022-12-31T06:16:15;7.90;99.90
3792;DHT22;1911;53.768;11.474;2022-12-31T06:18:40;7.80;99.90
3792;DHT22;1911;53.768;11.474;2022-12-31T06:21:06;7.60;99.90
3792;DHT22;1911;53.768;11.474;2022-12-31T06:23:32;7.70;99.90
3792;DHT22;1911;53.768;11.474;2022-12-31T06:26:04;7.90;99.90
3792;DHT22;1911;53.768;11.474;2022-12-31T06:28:29;8.10;99.90
3792;DHT22;1911;53.768;11.474;2022-12-31T06:31:03;8.30;99.90
3792;DHT22;1911;53.768;11.474;2022-12-31T06:33:29;8.40;99.90
3792;DHT22;1911;53.768;11.474;2022-12-31T06:35:56;8.50;99.90
3792;DHT22;1911;53.768;11.474;2022-12-31T06:38:23;8.70;99.90
3792;DHT22;1911;53.768;11.474;2022-12-31T06:40:48;8.70;99.90
3792;DHT22;1911;53.768;11.474;2022-12-31T06:43:14;8.50;99.90
3792;DHT22;1911;53.768;11.474;2022-12-31T06:45:40;8.30;99.90
3792;DHT22;1911;53.768;11.474;2022-12-31T06:48:06;8.10;99.90
3792;DHT22;1911;53.768;11.474;2022-12-31T06:50:31;8.00;99.90
3792;DHT22;1911;53.768;11.474;2022-12-31T06:52:57;7.80;99.90
3792;DHT22;1911;53.768;11.474;2022-12-31T06:55:23;7.80;99.90
3792;DHT22;1911;53.768;11.474;2022-12-31T06:57:49;7.80;99.90
3792;DHT22;1911;53.768;11.474;2022-12-31T07:00:15;7.90;99.90
3792;DHT22;1911;53.768;11.474;2022-12-31T07:05:51;7.90;99.90
3792;DHT22;1911;53.768;11.474;2022-12-31T07:10:58;8.00;99.90
3792;DHT22;1911;53.768;11.474;2022-12-31T07:14:02;8.00;99.90
3792;DHT22;1911;53.768;11.474;2022-12-31T07:21:45;8.10;99.90
3792;DHT22;1911;53.768;11.474;2022-12-31T07:24:13;8.20;99.90
3792;DHT22;1911;53.768;11.474;2022-12-31T07:27:07;8.30;99.90
3792;DHT22;1911;53.768;11.474;2022-12-31T07:32:40;8.20;99.90
3792;DHT22;1911;53.768;11.474;2022-12-31T07:35:48;7.90;99.90
3792;DHT22;1911;53.768;11.474;2022-12-31T07:45:07;8.10;99.90
3792;DHT22;1911;53.768;11.474;2022-12-31T07:47:19;8.00;99.90
3792;DHT22;1911;53.768;11.474;2022-12-31T07:49:45;8.00;99.90
3792;DHT22;1911;53.768;11.474;2022-12-31T07:52:11;8.30;99.90
3792;DHT22;1911;53.768;11.474;2022-12-31T07:54:37;8.60;99.90
3792;DHT22;1911;53.768;11.474;2022-12-31T07:57:03;8.80;99.90
3792;DHT22;1911;53.768;11.474;2022-12-31T08:05:53;8.70;99.90
3792;DHT22;1911;53.768;11.474;2022-12-31T08:11:25;8.60;99.90
3792;DHT22;1911;53.768;11.474;2022-12-31T08:13:54;8.60;99.90
3792;DHT22;1911;53.768;11.474;2022-12-31T08:16:21;8.50;99.90
3792;DHT22;1911;53.768;11.474;2022-12-31T08:18:47;8.40;99.90
3792;DHT22;1911;53.768;11.474;2022-12-31T08:24:25;8.60;99.90
3792;DHT22;1911;53.768;11.474;2022-12-31T08:27:14;8.60;99.90
3792;DHT22;1911;53.768;11.474;2022-12-31T08:30:04;8.60;99.90
3792;DHT22;1911;53.768;11.474;2022-12-31T08:53:03;8.70;99.90
3792;DHT22;1911;53.768;11.474;2022-12-31T09:06:37;7.80;99.90
3792;DHT22;1911;53.768;11.474;2022-12-31T09:09:24;7.80;99.90
3792;DHT22;1911;53.768;11.474;2022-12-31T09:14:52;8.20;99.90
3792;DHT22;1911;53.768;11.474;2022-12-31T09:19:48;8.80;99.90
3792;DHT22;1911;53.768;11.474;2022-12-31T09:22:13;8.80;99.90
3792;DHT22;1911;53.768;11.474;2022-12-31T09:24:39;8.90;99.90
3792;DHT22;1911;53.768;11.474;2022-12-31T10:21:50;9.30;99.90
3792;DHT22;1911;53.768;11.474;2022-12-31T10:27:43;9.20;99.90
3792;DHT22;1911;53.768;11.474;2022-12-31T10:30:22;9.10;99.90
3792;DHT22;1911;53.768;11.474;2022-12-31T10:33:16;9.20;99.90
3792;DHT22;1911;53.768;11.474;2022-12-31T10:36:16;9.20;99.90
3792;DHT22;1911;53.768;11.474;2022-12-31T10:38:52;9.10;99.90
3792;DHT22;1911;53.768;11.474;2022-12-31T10:44:24;9.20;99.90
3792;DHT22;1911;53.768;11.474;2022-12-31T11:01:46;9.10;99.90
3792;DHT22;1911;53.768;11.474;2022-12-31T11:29:12;9.70;99.90
3792;DHT22;1911;53.768;11.474;2022-12-31T11:37:40;9.90;99.90
3792;DHT22;1911;53.768;11.474;2022-12-31T11:43:02;9.90;99.90
3792;DHT22;1911;53.768;11.474;2022-12-31T11:46:00;10.00;99.90
3792;DHT22;1911;53.768;11.474;2022-12-31T11:54:58;10.10;99.90
3792;DHT22;1911;53.768;11.474;2022-12-31T11:59:58;10.20;99.90
3792;DHT22;1911;53.768;11.474;2022-12-31T12:02:35;10.20;99.90
3792;DHT22;1911;53.768;11.474;2022-12-31T12:05:04;10.10;99.90
3792;DHT22;1911;53.768;11.474;2022-12-31T12:07:31;10.10;99.90
3792;DHT22;1911;53.768;11.474;2022-12-31T12:12:55;10.10;99.90
3792;DHT22;1911;53.768;11.474;2022-12-31T12:15:37;10.00;99.90
3792;DHT22;1911;53.768;11.474;2022-12-31T12:18:12;9.80;99.90
3792;DHT22;1911;53.768;11.474;2022-12-31T12:20:48;10.00;99.90
3792;DHT22;1911;53.768;11.474;2022-12-31T12:23:24;9.90;99.90
3792;DHT22;1911;53.768;11.474;2022-12-31T12:25:50;9.80;99.90
3792;DHT22;1911;53.768;11.474;2022-12-31T12:30:41;10.20;99.90
3792;DHT22;1911;53.768;11.474;2022-12-31T12:33:17;10.30;99.90
3792;DHT22;1911;53.768;11.474;2022-12-31T12:35:43;10.20;99.90
3792;DHT22;1911;53.768;11.474;2022-12-31T12:38:15;10.20;99.90
3792;DHT22;1911;53.768;11.474;2022-12-31T12:40:56;10.20;99.90
3792;DHT22;1911;53.768;11.474;2022-12-31T12:43:33;10.50;99.90
3792;DHT22;1911;53.768;11.474;2022-12-31T12:48:41;10.60;99.90
3792;DHT22;1911;53.768;11.474;2022-12-31T12:57:28;10.60;99.90
3792;DHT22;1911;53.768;11.474;2022-12-31T14:48:28;12.10;99.90
3792;DHT22;1911;53.768;11.474;2022-12-31T14:51:16;12.00;99.90
3792;DHT22;1911;53.768;11.474;2022-12-31T15:04:12;11.60;99.90
3792;DHT22;1911;53.768;11.474;2022-12-31T15:54:03;11.70;99.90
3792;DHT22;1911;53.768;11.474;2022-12-31T16:04:02;11.90;99.90
3792;DHT22;1911;53.768;11.474;2022-12-31T16:06:40;11.80;99.90
3792;DHT22;1911;53.768;11.474;2022-12-31T16:09:31;11.90;99.90
3792;DHT22;1911;53.768;11.474;2022-12-31T16:12:41;12.00;99.90
3792;DHT22;1911;53.768;11.474;2022-12-31T16:15:34;12.10;99.90
3792;DHT22;1911;53.768;11.474;2022-12-31T16:18:09;12.00;99.90
3792;DHT22;1911;53.768;11.474;2022-12-31T16:21:03;11.90;99.90
3792;DHT22;1911;53.768;11.474;2022-12-31T16:23:50;11.80;99.90
3792;DHT22;1911;53.768;11.474;2022-12-31T16:26:43;11.90;99.90
3792;DHT22;1911;53.768;11.474;2022-12-31T16:37:00;12.10;99.90
3792;DHT22;1911;53.768;11.474;2022-12-31T16:40:11;11.90;99.90
3792;DHT22;1911;53.768;11.474;2022-12-31T16:43:38;11.90;99.90
3792;DHT22;1911;53.768;11.474;2022-12-31T16:59:05;11.80;99.90
3792;DHT22;1911;53.768;11.474;2022-12-31T18:37:51;9.90;99.90
3792;DHT22;1911;53.768;11.474;2022-12-31T18:40:17;9.90;99.90
3792;DHT22;1911;53.768;11.474;2022-12-31T18:42:42;10.00;99.90
3792;DHT22;1911;53.768;11.474;2022-12-31T18:45:15;10.00;99.90
3792;DHT22;1911;53.768;11.474;2022-12-31T18:47:41;9.80;99.90
3792;DHT22;1911;53.768;11.474;2022-12-31T18:50:07;9.90;99.90
3792;DHT22;1911;53.768;11.474;2022-12-31T18:52:32;10.10;99.90
3792;DHT22;1911;53.768;11.474;2022-12-31T18:54:58;10.40;99.90
3792;DHT22;1911;53.768;11.474;2022-12-31T18:57:23;10.40;99.90
3792;DHT22;1911;53.768;11.474;2022-12-31T18:59:49;10.10;99.90
3792;DHT22;1911;53.768;11.474;2022-12-31T19:02:17;10.20;99.90
3792;DHT22;1911;53.768;11.474;2022-12-31T19:04:44;10.30;99.90
3792;DHT22;1911;53.768;11.474;2022-12-31T19:07:09;10.30;99.90
3792;DHT22;1911;53.768;11.474;2022-12-31T19:09:37;10.60;99.90
3792;DHT22;1911;53.768;11.474;2022-12-31T19:12:03;10.90;99.90
3792;DHT22;1911;53.768;11.474;2022-12-31T19:14:29;11.10;99.90
3792;DHT22;1911;53.768;11.474;2022-12-31T19:16:55;11.20;99.90
3792;DHT22;1911;53.768;11.474;2022-12-31T19:19:23;11.00;99.90
3792;DHT22;1911;53.768;11.474;2022-12-31T19:21:49;10.70;99.90
3792;DHT22;1911;53.768;11.474;2022-12-31T19:24:23;10.60;99.90
3792;DHT22;1911;53.768;11.474;2022-12-31T19:26:50;10.60;99.90
3792;DHT22;1911;53.768;11.474;2022-12-31T19:29:24;10.50;99.90
3792;DHT22;1911;53.768;11.474;2022-12-31T19:31:50;10.40;99.90
3792;DHT22;1911;53.768;11.474;2022-12-31T19:34:16;10.60;99.90
3792;DHT22;1911;53.768;11.474;2022-12-31T19:36:42;10.70;99.90
3792;DHT22;1911;53.768;11.474;2022-12-31T19:39:16;11.00;99.90
3792;DHT22;1911;53.768;11.474;2022-12-31T19:41:43;11.00;99.90
3792;DHT22;1911;53.768;11.474;2022-12-31T19:44:16;10.90;99.90
3792;DHT22;1911;53.768;11.474;2022-12-31T19:46:42;11.00;99.90
3792;DHT22;1911;53.768;11.474;2022-12-31T19:49:13;11.00;99.90
3792;DHT22;1911;53.768;11.474;2022-12-31T19:51:40;11.20;99.90
3792;DHT22;1911;53.768;11.474;2022-12-31T19:54:06;11.40;99.90
3792;DHT22;1911;53.768;11.474;2022-12-31T19:56:32;11.50;99.90
3792;DHT22;1911;53.768;11.474;2022-12-31T19:59:02;11.40;99.90
3792;DHT22;1911;53.768;11.474;2022-12-31T20:01:28;11.20;99.90
3792;DHT22;1911;53.768;11.474;2022-12-31T20:03:54;11.10;99.90
3792;DHT22;1911;53.768;11.474;2022-12-31T20:06:20;11.10;99.90
3792;DHT22;1911;53.768;11.474;2022-12-31T20:08:46;10.90;99.90
3792;DHT22;1911;53.768;11.474;2022-12-31T20:11:14;10.80;99.90
3792;DHT22;1911;53.768;11.474;2022-12-31T20:13:40;10.90;99.90
3792;DHT22;1911;53.768;11.474;2022-12-31T20:16:13;11.00;99.90
3792;DHT22;1911;53.768;11.474;2022-12-31T20:18:44;11.00;99.90
3792;DHT22;1911;53.768;11.474;2022-12-31T20:21:16;10.90;99.90
3792;DHT22;1911;53.768;11.474;2022-12-31T20:23:43;10.90;99.90
3792;DHT22;1911;53.768;11.474;2022-12-31T20:26:09;11.00;99.90
3792;DHT22;1911;53.768;11.474;2022-12-31T20:28:36;11.00;99.90
3792;DHT22;1911;53.768;11.474;2022-12-31T20:31:13;11.00;99.90
3792;DHT22;1911;53.768;11.474;2022-12-31T20:33:39;11.00;99.90
3792;DHT22;1911;53.768;11.474;2022-12-31T20:36:06;10.80;99.90
3792;DHT22;1911;53.768;11.474;2022-12-31T20:38:33;10.80;99.90
3792;DHT22;1911;53.768;11.474;2022-12-31T20:41:09;10.70;99.90
3792;DHT22;1911;53.768;11.474;2022-12-31T20:43:35;10.70;99.90
3792;DHT22;1911;53.768;11.474;2022-12-31T20:48:42;10.70;99.90
3792;DHT22;1911;53.768;11.474;2022-12-31T20:51:07;10.70;99.90
3792;DHT22;1911;53.768;11.474;2022-12-31T20:53:33;10.80;99.90
3792;DHT22;1911;53.768;11.474;2022-12-31T20:56:06;10.70;99.90
3792;DHT22;1911;53.768;11.474;2022-12-31T20:58:36;10.70;99.90
3792;DHT22;1911;53.768;11.474;2022-12-31T21:01:05;10.70;99.90
3792;DHT22;1911;53.768;11.474;2022-12-31T21:03:36;10.80;99.90
3792;DHT22;1911;53.768;11.474;2022-12-31T21:06:01;10.80;99.90
3792;DHT22;1911;53.768;11.474;2022-12-31T21:08:27;10.90;99.90
3792;DHT22;1911;53.768;11.474;2022-12-31T21:10:53;11.00;99.90
3792;DHT22;1911;53.768;11.474;2022-12-31T21:13:18;11.20;99.90
3792;DHT22;1911;53.768;11.474;2022-12-31T21:15:51;11.10;99.90
3792;DHT22;1911;53.768;11.474;2022-12-31T21:18:18;11.10;99.90
3792;DHT22;1911;53.768;11.474;2022-12-31T21:20:45;11.10;99.90
3792;DHT22;1911;53.768;11.474;2022-12-31T21:23:11;11.10;99.90
3792;DHT22;1911;53.768;11.474;2022-12-31T21:25:37;11.20;99.90
3792;DHT22;1911;53.768;11.474;2022-12-31T21:28:02;11.30;99.90
3792;DHT22;1911;53.768;11.474;2022-12-31T21:30:28;11.20;99.90
3792;DHT22;1911;53.768;11.474;2022-12-31T21:32:54;11.50;99.90
3792;DHT22;1911;53.768;11.474;2022-12-31T21:35:20;11.70;99.90
3792;DHT22;1911;53.768;11.474;2022-12-31T21:37:48;11.70;99.90
3792;DHT22;1911;53.768;11.474;2022-12-31T21:40:13;11.70;99.90
3792;DHT22;1911;53.768;11.474;2022-12-31T21:42:42;11.40;99.90
3792;DHT22;1911;53.768;11.474;2022-12-31T21:45:08;11.40;99.90
3792;DHT22;1911;53.768;11.474;2022-12-31T21:47:34;11.60;99.90
3792;DHT22;1911;53.768;11.474;2022-12-31T21:50:18;11.60;99.90
3792;DHT22;1911;53.768;11.474;2022-12-31T21:52:43;11.60;99.90
3792;DHT22;1911;53.768;11.474;2022-12-31T21:55:10;11.60;99.90
3792;DHT22;1911;53.768;11.474;2022-12-31T21:57:56;11.70;99.90
3792;DHT22;1911;53.768;11.474;2022-12-31T22:00:22;11.70;99.90
3792;DHT22;1911;53.768;11.474;2022-12-31T22:03:09;11.70;99.90
3792;DHT22;1911;53.768;11.474;2022-12-31T22:05:57;11.70;99.90
3792;DHT22;1911;53.768;11.474;2022-12-31T22:08:24;11.70;99.90
3792;DHT22;1911;53.768;11.474;2022-12-31T22:10:49;11.80;99.90
3792;DHT22;1911;53.768;11.474;2022-12-31T22:13:15;11.80;99.90
3792;DHT22;1911;53.768;11.474;2022-12-31T22:15:42;12.00;99.90
3792;DHT22;1911;53.768;11.474;2022-12-31T22:18:08;12.00;99.90
3792;DHT22;1911;53.768;11.474;2022-12-31T22:20:34;12.00;99.90
3792;DHT22;1911;53.768;11.474;2022-12-31T22:23:00;12.10;99.90
3792;DHT22;1911;53.768;11.474;2022-12-31T22:25:25;12.00;99.90
3792;DHT22;1911;53.768;11.474;2022-12-31T22:27:51;11.90;99.90
3792;DHT22;1911;53.768;11.474;2022-12-31T22:30:17;11.60;99.90
3792;DHT22;1911;53.768;11.474;2022-12-31T22:32:42;11.50;99.90
3792;DHT22;1911;53.768;11.474;2022-12-31T22:35:08;11.50;99.90
3792;DHT22;1911;53.768;11.474;2022-12-31T22:37:36;11.60;99.90
3792;DHT22;1911;53.768;11.474;2022-12-31T22:40:02;11.50;99.90
3792;DHT22;1911;53.768;11.474;2022-12-31T22:42:28;11.60;99.90
3792;DHT22;1911;53.768;11.474;2022-12-31T22:44:54;11.70;99.90
3792;DHT22;1911;53.768;11.474;2022-12-31T22:47:19;11.80;99.90
3792;DHT22;1911;53.768;11.474;2022-12-31T22:49:45;11.60;99.90
3792;DHT22;1911;53.768;11.474;2022-12-31T22:52:11;11.50;99.90
3792;DHT22;1911;53.768;11.474;2022-12-31T22:54:36;11.40;99.90
3792;DHT22;1911;53.768;11.474;2022-12-31T22:57:02;11.50;99.90
3792;DHT22;1911;53.768;11.474;2022-12-31T22:59:27;11.70;99.90
3792;DHT22;1911;53.768;11.474;2022-12-31T23:01:53;11.60;99.90
3792;DHT22;1911;53.768;11.474;2022-12-31T23:04:19;11.60;99.90
3792;DHT22;1911;53.768;11.474;2022-12-31T23:06:44;11.60;99.90
3792;DHT22;1911;53.768;11.474;2022-12-31T23:09:14;11.70;99.90
3792;DHT22;1911;53.768;11.474;2022-12-31T23:11:59;11.90;99.90
3792;DHT22;1911;53.768;11.474;2022-12-31T23:14:25;12.00;99.90
3792;DHT22;1911;53.768;11.474;2022-12-31T23:17:15;11.90;99.90
3792;DHT22;1911;53.768;11.474;2022-12-31T23:20:00;11.70;99.90
3792;DHT22;1911;53.768;11.474;2022-12-31T23:22:45;11.60;99.90
3792;DHT22;1911;53.768;11.474;2022-12-31T23:25:32;11.80;99.90
3792;DHT22;1911;53.768;11.474;2022-12-31T23:27:58;11.80;99.90
3792;DHT22;1911;53.768;11.474;2022-12-31T23:30:23;11.90;99.90
3792;DHT22;1911;53.768;11.474;2022-12-31T23:32:49;11.90;99.90
3792;DHT22;1911;53.768;11.474;2022-12-31T23:35:15;11.90;99.90
3792;DHT22;1911;53.768;11.474;2022-12-31T23:37:40;12.10;99.90
3792;DHT22;1911;53.768;11.474;2022-12-31T23:40:06;12.00;99.90
3792;DHT22;1911;53.768;11.474;2022-12-31T23:42:32;11.80;99.90
3792;DHT22;1911;53.768;11.474;2022-12-31T23:44:58;11.70;99.90
3792;DHT22;1911;53.768;11.474;2022-12-31T23:47:23;11.60;99.90
3792;DHT22;1911;53.768;11.474;2022-12-31T23:49:49;11.70;99.90
3792;DHT22;1911;53.768;11.474;2022-12-31T23:52:14;11.70;99.90
3792;DHT22;1911;53.768;11.474;2022-12-31T23:54:40;11.80;99.90
3792;DHT22;1911;53.768;11.474;2022-12-31T23:57:05;11.90;99.90
3792;DHT22;1911;53.768;11.474;2022-12-31T23:59:31;11.90;99.90
